• Join FlightAware (Why Join?)
  • Login
  • US Flag 
08:57PM EDT


 

Airport Tracker/Info


-or-


 

Live Flight TrackerFlight Track Log ✈ CPT7773 ✈ 10-May-2013 ✈ KCOD - KCPR

Flight Track Log - Related Links

Times and Time Zones

All times are in EDT time to prevent confusion due to time zone crossing. See the CPT7773 flight status page for this flight to view local times or setup timezone preferences in your user account.

Time Position Orientation Groundspeed Altitude Reporting Facility
EDT Latitude Longitude Course Direction KTS MPH feet Rate Location/Type
07:46PM 44.5217 -108.9686 113° Southeast 126 145 6,400  Level Salt Lake Center
07:47PM 44.5053 -108.9153 113° Southeast 134 154 7,600 1,140 Climbing Salt Lake Center
07:48PM 44.4936 -108.8694 110° East 132 152 8,800 1,140 Climbing Salt Lake Center
07:49PM 44.4778 -108.8189 114° Southeast 130 150 10,000 960 Climbing Salt Lake Center
07:50PM 44.4636 -108.7731 113° Southeast 130 150 10,900 480 Climbing Salt Lake Center
07:51PM 44.4497 -108.7111 107° East 141 162 11,000  Climbing Salt Lake Center
07:52PM 44.4247 -108.6544 122° Southeast 161 185 11,000  Level Salt Lake Center
07:53PM 44.3847 -108.6006 136° Southeast 173 199 11,000 -60 Level Salt Lake Center
07:54PM 44.3533 -108.5514 132° Southeast 176 203 10,900 -60 Descending Salt Lake Center
07:55PM 44.3211 -108.5028 133° Southeast 177 204 10,900  Level Salt Lake Center
07:56PM 44.2847 -108.4447 131° Southeast 178 205 11,000  Climbing Salt Lake Center
07:57PM 44.2536 -108.3956 131° Southeast 178 205 11,000  Level Salt Lake Center
07:58PM 44.2169 -108.3389 132° Southeast 177 204 11,000  Level Salt Lake Center
07:59PM 44.1847 -108.2900 133° Southeast 178 205 11,000  Level Salt Lake Center
08:00PM 44.1467 -108.2325 133° Southeast 179 206 11,000  Level Salt Lake Center
08:01PM 44.1142 -108.1831 132° Southeast 181 208 11,000  Level Salt Lake Center
08:03PM 44.0772 -108.1275 133° Southeast 178 205 11,000  Level Salt Lake Center
08:04PM 44.0464 -108.0792 132° Southeast 176 203 11,000  Level Salt Lake Center
08:05PM 44.0161 -108.0328 132° Southeast 174 200 11,000  Level Salt Lake Center
08:06PM 43.9803 -107.9789 133° Southeast 171 197 11,000  Level Salt Lake Center
08:07PM 43.9500 -107.9311 131° Southeast 172 198 11,000  Level Salt Lake Center
08:08PM 43.9211 -107.8703 123° Southeast 170 196 11,000 -60 Level Salt Lake Center
08:09PM 43.8950 -107.8197 126° Southeast 169 194 10,900  Descending Salt Lake Center
08:10PM 43.8647 -107.7611 126° Southeast 168 193 11,000  Climbing Salt Lake Center
08:11PM 43.8389 -107.7117 126° Southeast 168 193 11,000  Level Salt Lake Center
08:12PM 43.8089 -107.6544 126° Southeast 166 191 11,000  Level Salt Lake Center
08:13PM 43.7833 -107.6033 125° Southeast 167 192 11,100  Climbing Salt Lake Center
08:14PM 43.7567 -107.5519 126° Southeast 169 194 11,000 -60 Descending Salt Lake Center
08:15PM 43.7264 -107.4922 125° Southeast 170 196 11,000  Level Salt Lake Center
08:16PM 43.6992 -107.4411 126° Southeast 172 198 11,000  Level Salt Lake Center
08:17PM 43.6686 -107.3806 125° Southeast 172 198 11,100  Climbing Salt Lake Center
08:18PM 43.6419 -107.3289 125° Southeast 172 198 11,000 -60 Descending Salt Lake Center
08:19PM 43.6128 -107.2692 124° Southeast 171 197 11,000  Level Salt Lake Center
08:20PM 43.5858 -107.2203 127° Southeast 168 193 11,100  Climbing Salt Lake Center
08:21PM 43.5583 -107.1700 127° Southeast 170 196 11,100 -60 Level Salt Lake Center
08:22PM 43.5272 -107.1094 125° Southeast 172 198 11,000 -120 Descending Salt Lake Center
08:22PM 43.5200 -107.0897 117° Southeast 172 198 11,000  Level Denver Center
08:23PM 43.4928 -107.0383 126° Southeast 173 199 11,000  Level Denver Center
08:24PM 43.4622 -106.9794 126° Southeast 170 196 11,000  Level Denver Center
08:25PM 43.4358 -106.9289 126° Southeast 170 196 11,000  Level Denver Center
08:26PM 43.4061 -106.8719 126° Southeast 170 196 11,000  Level Denver Center
08:27PM 43.3792 -106.8219 127° Southeast 170 196 11,000 -300 Level Denver Center
08:29PM 43.3394 -106.7731 138° Southeast 174 200 10,400 -480 Descending Denver Center
08:30PM 43.2917 -106.7461 158° South 189 217 10,100 -360 Descending Denver Center
08:31PM 43.2483 -106.7097 149° Southeast 168 193 9,700 -540 Descending Denver Center
08:32PM 43.2067 -106.6769 150° Southeast 172 198 9,000 -780 Descending Denver Center
08:33PM 43.1575 -106.6503 158° South 182 209 8,200 -720 Descending Denver Center
08:34PM 43.0975 -106.6214 161° South 193 222 7,600 -360 Descending Denver Center
08:35PM 43.0422 -106.5925 159° South 195 224 7,500 -120 Descending Denver Center
08:37PM 42.9760 -106.5292 145° Southeast  Level Estimated
08:44PM 42.9080 -106.4644 145° Southeast  Level Estimated
08:45PM 42.9080 -106.4644 90° East  Level Estimated
08:46PM 42.9080 -106.4644 90° East  Level Estimated
08:47PM 42.9080 -106.4644 90° East  Level Estimated
08:48PM 42.9080 -106.4644 90° East  Level Estimated